Time;durP1;ratioP1;P1;durP2;ratioP2;P2;SDS_P1;SDS_P2;PMS_P1;PMS_P2;Temp;Humidity;BMP_temperature;BMP_pressure;BME280_temperature;BME280_humidity;BME280_pressure;Samples;Min_cycle;Max_cycle;Signal;HPM_P1;HPM_P2
2021/05/01 00:02:09;;;;;;;11.90;4.93;;;13.90;99.90;;;;;;5044135;28;20052;-68
2021/05/01 00:05:13;;;;;;;10.90;4.68;;;13.90;99.90;;;;;;5030811;28;20052;-68
2021/05/01 00:08:17;;;;;;;14.48;5.38;;;14.00;99.90;;;;;;5030707;28;20067;-68
2021/05/01 00:11:23;;;;;;;10.23;4.82;;;14.10;99.90;;;;;;5033904;28;20049;-68
2021/05/01 00:14:27;;;;;;;11.55;5.63;;;14.10;99.90;;;;;;5029268;28;20045;-67
2021/05/01 00:17:31;;;;;;;10.90;5.63;;;14.10;99.90;;;;;;5047494;28;20044;-68
2021/05/01 00:20:35;;;;;;;11.85;5.85;;;14.10;99.90;;;;;;5040500;28;20064;-68
2021/05/01 00:23:39;;;;;;;15.63;5.22;;;14.00;99.90;;;;;;5031371;28;20044;-68
2021/05/01 00:26:43;;;;;;;10.80;4.60;;;13.90;99.90;;;;;;5035168;28;20048;-68
2021/05/01 00:29:49;;;;;;;13.32;5.35;;;13.80;99.90;;;;;;5041519;28;20436;-68
2021/05/01 00:33:09;;;;;;;12.60;5.55;;;13.80;99.90;;;;;;5042016;28;20044;-68
2021/05/01 00:36:32;;;;;;;13.68;5.90;;;13.70;99.90;;;;;;5043513;28;20049;-68
2021/05/01 00:39:37;;;;;;;16.48;5.47;;;13.60;99.90;;;;;;5034466;28;20044;-67
2021/05/01 00:42:43;;;;;;;13.55;6.38;;;13.60;99.90;;;;;;5044090;28;20502;-68
2021/05/01 00:45:47;;;;;;;8.57;5.72;;;13.60;99.90;;;;;;5044778;28;20506;-67
2021/05/01 00:48:51;;;;;;;13.63;6.10;;;13.60;99.90;;;;;;5049473;28;20048;-69
2021/05/01 00:51:55;;;;;;;12.60;5.10;;;13.70;99.90;;;;;;5040834;28;20071;-68
2021/05/01 00:54:59;;;;;;;13.90;7.00;;;13.80;99.90;;;;;;5038293;28;20048;-68
2021/05/01 00:58:04;;;;;;;11.95;6.40;;;13.80;99.90;;;;;;5034026;28;20036;-68
2021/05/01 01:04:12;;;;;;;12.45;6.15;;;13.90;99.90;;;;;;5049092;28;20044;-68
2021/05/01 01:07:16;;;;;;;11.75;6.15;;;13.80;99.90;;;;;;5048974;28;20056;-68
2021/05/01 01:10:21;;;;;;;13.35;5.53;;;13.70;99.90;;;;;;5046904;28;20047;-68
2021/05/01 01:13:25;;;;;;;9.35;6.28;;;13.70;99.90;;;;;;5040793;28;20056;-68
2021/05/01 01:16:30;;;;;;;12.45;5.88;;;13.60;99.90;;;;;;5034270;28;20383;-68
2021/05/01 01:19:37;;;;;;;14.00;6.30;;;13.60;99.90;;;;;;5041772;28;20396;-68
2021/05/01 01:22:42;;;;;;;16.30;5.50;;;13.60;99.90;;;;;;5053530;28;20044;-68
2021/05/01 01:25:46;;;;;;;9.40;4.75;;;13.70;99.90;;;;;;5053565;28;20048;-68
2021/05/01 01:28:50;;;;;;;7.30;5.10;;;13.70;99.90;;;;;;5052892;28;20060;-68
2021/05/01 01:31:57;;;;;;;17.42;6.32;;;13.60;99.90;;;;;;5033195;28;20048;-68
2021/05/01 01:35:01;;;;;;;10.07;6.00;;;13.60;99.90;;;;;;5033918;28;20049;-68
2021/05/01 01:38:06;;;;;;;10.15;4.97;;;13.50;99.90;;;;;;5050715;28;20040;-68
2021/05/01 01:41:22;;;;;;;9.18;4.63;;;13.60;99.90;;;;;;5053966;28;20498;-68
2021/05/01 01:44:26;;;;;;;11.30;4.78;;;13.50;99.90;;;;;;5052967;28;20064;-68
2021/05/01 01:47:31;;;;;;;13.63;8.55;;;13.50;99.90;;;;;;5039567;28;20673;-68
2021/05/01 01:50:36;;;;;;;13.20;6.70;;;13.50;99.90;;;;;;5033596;28;20036;-69
2021/05/01 01:53:45;;;;;;;14.13;5.63;;;13.50;99.90;;;;;;5041910;28;20041;-68
2021/05/01 01:56:48;;;;;;;11.27;5.55;;;13.40;99.90;;;;;;5035540;28;20052;-68
2021/05/01 01:59:52;;;;;;;6.35;5.43;;;13.40;99.90;;;;;;5034630;28;20044;-68
2021/05/01 02:02:59;;;;;;;9.68;4.82;;;13.30;99.90;;;;;;5032986;28;20056;-68
2021/05/01 02:06:04;;;;;;;6.93;4.35;;;13.30;99.90;;;;;;5033626;28;20044;-68
2021/05/01 02:09:08;;;;;;;10.85;4.95;;;13.30;99.90;;;;;;5036481;28;20036;-73
2021/05/01 02:12:12;;;;;;;7.80;4.70;;;13.30;99.90;;;;;;5044677;28;20380;-74
2021/05/01 02:15:18;;;;;;;10.75;4.55;;;13.40;99.90;;;;;;5031167;28;20052;-74
2021/05/01 02:18:34;;;;;;;8.90;4.88;;;13.30;99.90;;;;;;5051212;28;20044;-73
2021/05/01 02:21:38;;;;;;;9.75;4.10;;;13.30;99.90;;;;;;5045715;28;20494;-73
2021/05/01 02:24:43;;;;;;;6.45;3.17;;;13.30;99.90;;;;;;5052370;28;20108;-73
2021/05/01 02:27:48;;;;;;;6.18;2.40;;;13.20;99.90;;;;;;5051892;28;20052;-74
2021/05/01 02:30:52;;;;;;;3.70;2.60;;;13.10;99.90;;;;;;5050519;28;20047;-73
2021/05/01 02:33:56;;;;;;;6.88;3.00;;;13.10;99.90;;;;;;5032381;28;20044;-74
2021/05/01 02:37:00;;;;;;;8.68;3.30;;;13.00;99.90;;;;;;5031702;28;20044;-73
2021/05/01 02:40:06;;;;;;;9.70;4.32;;;13.00;99.90;;;;;;5047669;28;20048;-74
2021/05/01 02:43:11;;;;;;;12.70;3.70;;;13.00;99.90;;;;;;5052109;28;20056;-73
2021/05/01 02:46:16;;;;;;;16.10;4.25;;;13.00;99.90;;;;;;5050858;28;20056;-74
2021/05/01 02:49:19;;;;;;;9.05;2.80;;;13.00;99.90;;;;;;5051370;28;20048;-73
2021/05/01 02:52:23;;;;;;;7.30;3.50;;;13.00;99.90;;;;;;5051419;28;20048;-73
2021/05/01 02:55:27;;;;;;;12.07;3.60;;;13.00;99.90;;;;;;5051375;28;20052;-74
2021/05/01 02:58:32;;;;;;;10.75;4.00;;;13.00;99.90;;;;;;5038118;28;20052;-73
2021/05/01 03:01:36;;;;;;;10.02;3.47;;;12.90;99.90;;;;;;5039935;28;20503;-73
2021/05/01 03:04:41;;;;;;;7.10;3.40;;;12.90;99.90;;;;;;5052310;28;20048;-74
2021/05/01 03:07:45;;;;;;;4.75;2.75;;;12.90;99.90;;;;;;5051688;28;20051;-74
2021/05/01 03:10:49;;;;;;;7.43;2.55;;;12.90;99.90;;;;;;5039396;28;20044;-73
2021/05/01 03:13:53;;;;;;;9.50;2.28;;;12.80;99.90;;;;;;5032000;28;20491;-74
2021/05/01 03:16:57;;;;;;;7.60;2.10;;;12.90;99.90;;;;;;5030581;28;20041;-74
2021/05/01 03:20:01;;;;;;;5.25;2.58;;;12.90;99.90;;;;;;5031020;28;20074;-73
2021/05/01 03:23:07;;;;;;;6.03;2.63;;;12.90;99.90;;;;;;5031648;28;20040;-74
2021/05/01 03:26:12;;;;;;;8.60;2.17;;;12.90;99.90;;;;;;5030819;28;20056;-73
2021/05/01 03:29:16;;;;;;;4.60;2.22;;;12.90;99.90;;;;;;5045764;28;20514;-74
2021/05/01 03:32:20;;;;;;;4.00;2.40;;;12.90;99.90;;;;;;5051564;28;20052;-73
2021/05/01 03:35:24;;;;;;;8.95;2.47;;;12.90;99.90;;;;;;5051085;28;20060;-73
2021/05/01 03:38:28;;;;;;;9.55;3.63;;;12.90;99.90;;;;;;5050505;28;20044;-73
2021/05/01 03:41:32;;;;;;;9.77;2.80;;;12.90;99.90;;;;;;5050863;28;20040;-73
2021/05/01 03:44:37;;;;;;;5.88;2.70;;;12.80;99.90;;;;;;5050486;28;20044;-73
2021/05/01 03:47:41;;;;;;;6.70;2.53;;;12.80;99.90;;;;;;5050293;28;20048;-74
2021/05/01 03:50:44;;;;;;;6.40;2.55;;;12.80;99.90;;;;;;5041926;28;20052;-74
2021/05/01 03:53:48;;;;;;;8.00;2.92;;;12.80;99.90;;;;;;5043555;28;20377;-73
2021/05/01 03:56:52;;;;;;;10.70;3.28;;;12.80;99.90;;;;;;5032100;28;20053;-74
2021/05/01 03:59:56;;;;;;;5.53;2.55;;;12.90;99.90;;;;;;5038673;28;20045;-73
2021/05/01 04:03:01;;;;;;;10.02;2.53;;;12.90;99.90;;;;;;5031559;28;20044;-73
2021/05/01 04:06:06;;;;;;;9.75;2.55;;;12.90;99.90;;;;;;5048805;28;20048;-73
2021/05/01 04:09:10;;;;;;;3.03;2.03;;;12.80;99.90;;;;;;5045578;28;20044;-74
2021/05/01 04:12:14;;;;;;;7.85;2.78;;;12.80;99.90;;;;;;5030908;28;20389;-74
2021/05/01 04:15:18;;;;;;;12.55;2.53;;;12.80;99.90;;;;;;5029260;28;20052;-74
2021/05/01 04:18:23;;;;;;;8.05;2.35;;;12.70;99.90;;;;;;5044545;28;20047;-73
2021/05/01 04:21:33;;;;;;;6.00;1.77;;;12.70;99.90;;;;;;5041255;28;20395;-73
2021/05/01 04:24:37;;;;;;;7.18;2.72;;;12.80;99.90;;;;;;5050569;28;20040;-73
2021/05/01 04:27:51;;;;;;;11.20;2.80;;;12.90;99.90;;;;;;5049460;28;20527;-74
2021/05/01 04:30:55;;;;;;;5.65;2.80;;;12.90;99.90;;;;;;5048560;28;20040;-73
2021/05/01 04:33:59;;;;;;;4.05;2.35;;;12.90;99.90;;;;;;5031192;28;20280;-74
2021/05/01 04:37:04;;;;;;;4.82;3.15;;;12.80;99.90;;;;;;5029262;28;20048;-73
2021/05/01 04:40:09;;;;;;;8.98;2.65;;;12.80;99.90;;;;;;5029743;28;20044;-73
2021/05/01 04:43:16;;;;;;;7.05;2.75;;;12.80;99.90;;;;;;5030963;28;20048;-74
2021/05/01 04:46:20;;;;;;;9.30;2.67;;;12.90;99.90;;;;;;5047583;28;20075;-74
2021/05/01 04:49:24;;;;;;;8.93;3.17;;;12.90;99.90;;;;;;5050133;28;20044;-73
2021/05/01 04:52:28;;;;;;;6.95;3.90;;;12.90;99.90;;;;;;5053887;28;20052;-74
2021/05/01 04:55:33;;;;;;;8.07;3.65;;;12.90;99.90;;;;;;5053744;28;20048;-73
2021/05/01 04:58:37;;;;;;;7.70;3.35;;;12.90;99.90;;;;;;5047806;28;20048;-73
2021/05/01 05:01:41;;;;;;;6.03;3.35;;;12.80;99.90;;;;;;5053501;28;20040;-72
2021/05/01 05:04:44;;;;;;;13.27;3.80;;;12.80;99.90;;;;;;5054296;28;20044;-73
2021/05/01 05:07:49;;;;;;;8.95;3.47;;;13.00;99.90;;;;;;5053649;28;20064;-73
2021/05/01 05:10:53;;;;;;;6.97;3.55;;;13.30;99.90;;;;;;5048555;28;20052;-73
2021/05/01 05:13:58;;;;;;;6.45;3.08;;;13.50;99.90;;;;;;5034507;28;20096;-73
2021/05/01 05:17:03;;;;;;;9.15;3.08;;;13.70;99.90;;;;;;5049965;28;20048;-74
2021/05/01 05:20:08;;;;;;;4.43;3.20;;;14.00;99.90;;;;;;5047991;28;20045;-74
2021/05/01 05:23:12;;;;;;;12.23;3.47;;;14.20;99.90;;;;;;5034346;28;20052;-74
2021/05/01 05:26:17;;;;;;;5.40;2.60;;;14.40;99.90;;;;;;5052138;28;20068;-74
2021/05/01 05:29:21;;;;;;;6.18;2.80;;;14.70;99.90;;;;;;5051980;28;20733;-74
2021/05/01 05:32:27;;;;;;;7.38;2.50;;;14.80;99.90;;;;;;5031374;28;20036;-73
2021/05/01 05:35:32;;;;;;;10.88;2.92;;;15.10;99.90;;;;;;5030994;28;20115;-74
2021/05/01 05:38:36;;;;;;;6.13;3.03;;;15.20;99.90;;;;;;5030583;28;20044;-74
2021/05/01 05:41:42;;;;;;;9.13;3.13;;;15.20;99.90;;;;;;5029735;28;20048;-74
2021/05/01 05:44:49;;;;;;;8.95;3.63;;;15.50;99.90;;;;;;5030565;28;20076;-74
2021/05/01 05:47:54;;;;;;;15.70;4.05;;;14.80;99.90;;;;;;5030530;28;20843;-74
2021/05/01 05:51:00;;;;;;;7.07;3.33;;;14.60;99.90;;;;;;5034700;28;20044;-74
2021/05/01 05:54:04;;;;;;;5.13;2.95;;;15.00;99.90;;;;;;5032050;28;20156;-75
2021/05/01 05:57:10;;;;;;;11.10;3.28;;;15.30;99.90;;;;;;5030402;28;20037;-74
2021/05/01 06:00:16;;;;;;;6.90;2.92;;;15.80;99.90;;;;;;5031212;28;20056;-74
2021/05/01 06:03:24;;;;;;;5.53;2.75;;;16.40;99.90;;;;;;5031416;28;20056;-73
2021/05/01 06:06:33;;;;;;;11.75;4.15;;;16.80;99.90;;;;;;5030878;28;20125;-74
2021/05/01 06:09:39;;;;;;;13.27;4.60;;;16.60;99.90;;;;;;5034850;28;20491;-74
2021/05/01 06:12:44;;;;;;;9.57;4.40;;;16.70;99.90;;;;;;5031014;28;20063;-75
2021/05/01 06:15:49;;;;;;;9.25;4.22;;;16.50;99.90;;;;;;5028884;28;20044;-73
2021/05/01 06:18:54;;;;;;;11.20;4.78;;;16.50;99.90;;;;;;5032892;28;20032;-74
2021/05/01 06:22:00;;;;;;;8.52;4.57;;;16.30;99.90;;;;;;5034014;28;20526;-74
2021/05/01 06:25:07;;;;;;;6.07;3.47;;;16.30;99.90;;;;;;5036419;28;20060;-74
2021/05/01 06:28:12;;;;;;;10.68;4.60;;;16.30;99.90;;;;;;5038616;28;20064;-74
2021/05/01 06:31:16;;;;;;;10.38;3.90;;;16.30;99.90;;;;;;5031181;28;20788;-73
2021/05/01 06:34:20;;;;;;;9.77;3.38;;;16.70;99.90;;;;;;5031314;28;20056;-74
2021/05/01 06:37:26;;;;;;;6.07;3.20;;;17.20;99.90;;;;;;5031335;28;20146;-74
2021/05/01 06:40:34;;;;;;;7.78;3.25;;;17.60;99.90;;;;;;5045365;28;20049;-74
2021/05/01 06:43:51;;;;;;;12.95;3.75;;;18.10;99.90;;;;;;5044847;28;20041;-74
2021/05/01 06:46:55;;;;;;;11.13;4.45;;;16.70;99.90;;;;;;5050522;28;20086;-74
2021/05/01 06:50:12;;;;;;;9.23;4.18;;;16.30;99.90;;;;;;5051359;28;20495;-73
2021/05/01 06:53:27;;;;;;;6.25;3.85;;;16.10;99.90;;;;;;5051389;28;20040;-74
2021/05/01 06:56:32;;;;;;;8.82;3.75;;;16.90;99.90;;;;;;5042458;28;20052;-74
2021/05/01 06:59:37;;;;;;;10.05;4.22;;;16.80;99.90;;;;;;5033961;28;20048;-74
2021/05/01 07:02:47;;;;;;;6.32;3.33;;;17.40;99.90;;;;;;5038576;28;20059;-74
2021/05/01 07:05:56;;;;;;;3.95;3.13;;;17.80;99.90;;;;;;5050373;28;20040;-74
2021/05/01 07:09:12;;;;;;;8.82;3.95;;;17.80;99.90;;;;;;5048318;28;20490;-74
2021/05/01 07:12:21;;;;;;;8.45;4.15;;;17.70;99.90;;;;;;5037590;28;20057;-74
2021/05/01 07:15:27;;;;;;;14.23;4.07;;;17.50;99.90;;;;;;5048698;28;20051;-74
2021/05/01 07:18:31;;;;;;;8.88;4.38;;;17.50;99.90;;;;;;5032037;28;20048;-74
2021/05/01 07:21:47;;;;;;;13.57;4.60;;;16.90;99.90;;;;;;5033368;28;20036;-74
2021/05/01 07:24:51;;;;;;;8.07;4.68;;;17.10;99.90;;;;;;5033260;28;20041;-74
2021/05/01 07:28:10;;;;;;;8.95;5.28;;;17.30;99.90;;;;;;5033697;28;20052;-74
2021/05/01 07:31:22;;;;;;;6.18;4.53;;;17.60;99.90;;;;;;5036737;28;20628;-74
2021/05/01 07:34:28;;;;;;;7.45;5.20;;;17.80;99.90;;;;;;5034848;28;20408;-73
2021/05/01 07:37:37;;;;;;;6.47;5.03;;;18.10;99.90;;;;;;5032097;28;20044;-74
2021/05/01 07:40:41;;;;;;;11.15;4.53;;;18.30;99.90;;;;;;5034471;28;20404;-73
2021/05/01 07:43:51;;;;;;;7.85;5.03;;;18.80;99.90;;;;;;5049094;28;20044;-74
2021/05/01 07:47:00;;;;;;;7.18;4.90;;;19.30;99.90;;;;;;5035656;28;20048;-74
2021/05/01 07:50:06;;;;;;;9.27;5.10;;;20.10;99.90;;;;;;5036110;28;20060;-74
2021/05/01 07:53:11;;;;;;;10.43;4.68;;;20.80;99.90;;;;;;5033507;28;20108;-74
2021/05/01 07:56:15;;;;;;;8.07;4.63;;;20.40;99.90;;;;;;5038977;28;20498;-74
2021/05/01 07:59:19;;;;;;;12.00;5.07;;;19.60;99.90;;;;;;5042240;28;20044;-75
2021/05/01 08:02:24;;;;;;;6.18;4.43;;;20.00;99.90;;;;;;5034081;28;20041;-74
2021/05/01 08:05:28;;;;;;;10.68;4.93;;;20.40;99.90;;;;;;5045019;28;20048;-74
2021/05/01 08:08:34;;;;;;;7.53;4.60;;;20.00;99.90;;;;;;5049462;28;20044;-74
2021/05/01 08:11:49;;;;;;;8.50;4.30;;;20.50;99.90;;;;;;5034266;28;20052;-74
2021/05/01 08:14:58;;;;;;;8.60;3.70;;;20.30;99.90;;;;;;5038521;28;20060;-74
2021/05/01 08:18:03;;;;;;;7.20;3.75;;;21.10;99.90;;;;;;5030842;28;20056;-74
2021/05/01 08:21:07;;;;;;;9.70;4.05;;;21.70;99.90;;;;;;5044263;28;20510;-74
2021/05/01 08:24:13;;;;;;;8.70;3.22;;;22.50;99.90;;;;;;5040703;28;20056;-74
2021/05/01 08:27:17;;;;;;;7.68;4.38;;;21.60;99.90;;;;;;5043480;28;20055;-75
2021/05/01 08:30:23;;;;;;;8.50;3.35;;;20.50;99.90;;;;;;5031405;28;20059;-74
2021/05/01 08:33:27;;;;;;;9.90;3.20;;;21.70;99.90;;;;;;5029988;28;20044;-74
2021/05/01 08:36:31;;;;;;;6.10;3.25;;;21.90;99.90;;;;;;5032773;28;20052;-76
2021/05/01 08:39:35;;;;;;;14.27;4.10;;;22.50;99.90;;;;;;5047842;28;20048;-76
2021/05/01 08:42:52;;;;;;;7.13;3.90;;;21.90;99.90;;;;;;5040405;28;20043;-75
2021/05/01 08:46:12;;;;;;;8.40;4.15;;;23.00;99.90;;;;;;5035609;28;20480;-74
2021/05/01 08:49:17;;;;;;;8.75;4.13;;;24.50;99.90;;;;;;5030511;28;20048;-74
2021/05/01 08:52:21;;;;;;;8.02;3.58;;;25.10;99.90;;;;;;5030600;28;20045;-74
2021/05/01 08:55:27;;;;;;;8.10;3.13;;;25.70;99.90;;;;;;5029792;28;20049;-75
2021/05/01 08:58:31;;;;;;;9.20;3.33;;;25.60;99.90;;;;;;5030248;28;20052;-75
2021/05/01 09:01:38;;;;;;;8.73;3.67;;;26.10;99.90;;;;;;5024098;28;20049;-74
2021/05/01 09:04:48;;;;;;;5.30;3.25;;;25.20;99.90;;;;;;4991567;28;20048;-74
2021/05/01 09:07:54;;;;;;;7.22;2.83;;;24.20;99.90;;;;;;4999684;28;20057;-74
2021/05/01 09:11:03;;;;;;;8.65;3.67;;;23.30;99.90;;;;;;5017757;28;20048;-73
2021/05/01 09:14:29;;;;;;;5.13;3.20;;;23.10;99.90;;;;;;5021705;28;20061;-74
2021/05/01 09:17:35;;;;;;;7.63;3.63;;;24.90;99.90;;;;;;5023985;28;20660;-75
2021/05/01 09:20:40;;;;;;;9.30;3.78;;;24.10;99.90;;;;;;5017332;28;20039;-75
2021/05/01 09:23:51;;;;;;;6.97;3.88;;;23.30;99.90;;;;;;5021236;28;20039;-74
2021/05/01 09:27:07;;;;;;;13.52;4.82;;;23.50;99.90;;;;;;5026936;28;20044;-76
2021/05/01 09:30:15;;;;;;;7.95;4.47;;;24.20;99.90;;;;;;5018760;28;20052;-75
2021/05/01 09:33:26;;;;;;;7.88;3.55;;;24.20;99.90;;;;;;5022257;28;20048;-73
2021/05/01 09:36:31;;;;;;;8.35;3.75;;;24.10;99.90;;;;;;5019739;28;20385;-75
2021/05/01 09:39:53;;;;;;;8.82;5.20;;;23.50;99.90;;;;;;5022394;28;20696;-71
2021/05/01 09:43:10;;;;;;;14.60;5.47;;;22.40;99.90;;;;;;5023536;28;20052;-74
2021/05/01 09:46:14;;;;;;;12.95;6.07;;;21.10;99.90;;;;;;5028384;28;20043;-75
2021/05/01 09:49:40;;;;;;;8.90;5.00;;;22.10;99.90;;;;;;5018363;28;20043;-74
2021/05/01 09:52:58;;;;;;;7.93;5.07;;;23.30;99.90;;;;;;5030443;28;21333;-75
2021/05/01 09:56:05;;;;;;;12.57;4.20;;;23.60;99.90;;;;;;5041639;28;20032;-74
2021/05/01 09:59:10;;;;;;;13.52;4.07;;;23.90;99.90;;;;;;5037364;28;20495;-76
2021/05/01 10:02:17;;;;;;;13.55;5.80;;;23.90;99.90;;;;;;5046537;28;20043;-74
2021/05/01 10:05:22;;;;;;;12.30;5.90;;;24.80;99.90;;;;;;5039880;28;20048;-75
2021/05/01 10:08:30;;;;;;;10.52;4.85;;;23.80;99.90;;;;;;5041127;28;20423;-74
2021/05/01 10:11:36;;;;;;;15.07;5.50;;;24.20;99.90;;;;;;5031855;28;20056;-74
2021/05/01 10:14:47;;;;;;;14.63;5.05;;;24.30;99.90;;;;;;5027460;28;20041;-75
2021/05/01 10:17:52;;;;;;;11.13;5.88;;;24.90;99.90;;;;;;5028293;28;20048;-75
2021/05/01 10:20:56;;;;;;;14.43;6.20;;;25.10;99.90;;;;;;5034756;28;20052;-76
2021/05/01 10:24:01;;;;;;;12.48;5.60;;;25.80;99.90;;;;;;5034577;28;20052;-76
2021/05/01 10:27:05;;;;;;;17.30;6.05;;;24.80;99.90;;;;;;5042040;28;20052;-77
2021/05/01 10:30:17;;;;;;;14.15;4.75;;;24.20;99.90;;;;;;5037025;28;20040;-75
2021/05/01 10:33:33;;;;;;;;;;;25.30;99.90;;;;;;5047282;28;20056;-75
2021/05/01 10:36:39;;;;;;;16.42;4.43;;;24.30;99.90;;;;;;5038914;28;19924;-75
2021/05/01 10:39:45;;;;;;;11.20;4.38;;;24.20;99.90;;;;;;5049664;28;20040;-74
2021/05/01 10:43:10;;;;;;;9.90;3.90;;;25.30;99.90;;;;;;5041129;28;20507;-75
2021/05/01 10:46:20;;;;;;;18.27;3.65;;;26.90;99.90;;;;;;5045615;28;20041;-75
2021/05/01 10:49:33;;;;;;;15.03;4.50;;;27.60;99.90;;;;;;5044004;28;20040;-75
2021/05/01 10:52:37;;;;;;;14.18;4.03;;;28.10;99.90;;;;;;5043758;28;20274;-75
2021/05/01 10:55:54;;;;;;;10.93;4.07;;;27.30;99.90;;;;;;5042366;28;20036;-74
2021/05/01 10:59:08;;;;;;;14.02;5.35;;;27.10;99.90;;;;;;5030967;28;20052;-75
2021/05/01 11:02:16;;;;;;;10.23;4.30;;;26.40;99.90;;;;;;5040395;28;20372;-74
2021/05/01 11:05:21;;;;;;;24.55;6.05;;;25.50;99.90;;;;;;5031835;28;20044;-75
2021/05/01 11:08:51;;;;;;;20.70;4.68;;;24.50;99.90;;;;;;5028577;28;20383;-74
2021/05/01 11:12:00;;;;;;;15.98;4.50;;;24.20;99.90;;;;;;5041334;28;20056;-74
2021/05/01 11:15:11;;;;;;;20.75;5.75;;;23.90;99.90;;;;;;5032596;28;20040;-74
2021/05/01 11:18:20;;;;;;;22.08;5.47;;;23.60;99.90;;;;;;5037822;28;20052;-75
2021/05/01 11:21:31;;;;;;;15.48;5.47;;;23.20;99.90;;;;;;5031696;28;20063;-74
2021/05/01 11:24:35;;;;;;;14.70;5.10;;;22.90;99.90;;;;;;5037924;28;20044;-75
2021/05/01 11:27:41;;;;;;;17.67;6.13;;;22.60;99.90;;;;;;5035906;28;20056;-75
2021/05/01 11:30:47;;;;;;;23.50;6.03;;;22.10;99.90;;;;;;5042191;28;20059;-76
2021/05/01 11:33:51;;;;;;;20.40;6.05;;;22.00;99.90;;;;;;5043722;28;20052;-75
2021/05/01 11:36:58;;;;;;;17.30;5.20;;;21.70;99.90;;;;;;5045764;28;20052;-74
2021/05/01 11:40:04;;;;;;;17.98;5.00;;;21.30;99.90;;;;;;5042463;28;20659;-75
2021/05/01 11:43:09;;;;;;;16.80;4.20;;;21.10;99.90;;;;;;5037995;28;20059;-76
2021/05/01 11:46:29;;;;;;;18.42;4.78;;;21.20;99.90;;;;;;5044027;28;20380;-76
2021/05/01 11:49:34;;;;;;;20.13;5.22;;;21.40;99.90;;;;;;5048946;28;20494;-76
2021/05/01 11:52:57;;;;;;;26.38;4.78;;;22.10;99.90;;;;;;5045007;28;20043;-75
2021/05/01 11:56:52;;;;;;;18.25;4.55;;;22.30;99.90;;;;;;5037470;28;20072;-74
2021/05/01 11:59:59;;;;;;;14.30;4.07;;;22.40;99.90;;;;;;5036706;28;20063;-76
2021/05/01 12:03:24;;;;;;;21.50;4.05;;;23.00;99.90;;;;;;5041737;28;20068;-76
2021/05/01 12:06:46;;;;;;;24.20;4.38;;;24.40;99.90;;;;;;5037796;28;20044;-74
2021/05/01 12:09:52;;;;;;;21.10;4.45;;;26.90;99.90;;;;;;5037935;28;20045;-75
2021/05/01 12:13:11;;;;;;;21.88;4.32;;;27.40;99.60;;;;;;5034901;28;20487;-74
2021/05/01 12:16:20;;;;;;;16.13;3.80;;;26.10;99.00;;;;;;5040999;28;20048;-77
2021/05/01 12:19:26;;;;;;;14.10;4.30;;;25.40;99.90;;;;;;5038918;28;20043;-76
2021/05/01 12:22:30;;;;;;;23.98;4.70;;;26.40;99.90;;;;;;5037020;28;20649;-77
2021/05/01 12:25:53;;;;;;;19.73;4.10;;;25.80;99.90;;;;;;5044021;28;20040;-75
2021/05/01 12:29:17;;;;;;;20.45;4.32;;;25.80;99.90;;;;;;5036293;28;20047;-76
2021/05/01 12:32:25;;;;;;;20.55;4.55;;;25.30;99.90;;;;;;5044691;28;20491;-74
2021/05/01 12:35:31;;;;;;;20.17;4.18;;;24.20;99.90;;;;;;5030585;28;20052;-74
2021/05/01 12:38:41;;;;;;;22.25;5.28;;;26.60;99.90;;;;;;5040528;28;20044;-75
2021/05/01 12:41:49;;;;;;;16.65;4.18;;;28.10;98.90;;;;;;5046221;28;20048;-74
2021/05/01 12:44:56;;;;;;;16.98;3.55;;;29.10;98.00;;;;;;5032411;28;20105;-74
2021/05/01 12:48:00;;;;;;;19.65;5.68;;;28.50;98.00;;;;;;5039033;28;20724;-76
2021/05/01 12:51:12;;;;;;;19.58;5.32;;;26.50;98.90;;;;;;5030479;28;20482;-75
2021/05/01 12:54:22;;;;;;;21.52;5.07;;;27.60;97.80;;;;;;5027230;28;20112;-74
2021/05/01 12:57:32;;;;;;;21.27;4.90;;;28.10;98.30;;;;;;5043228;28;20048;-73
2021/05/01 13:00:37;;;;;;;25.52;5.22;;;26.90;98.80;;;;;;5049403;28;20056;-73
2021/05/01 13:04:28;;;;;;;27.95;5.53;;;25.10;99.90;;;;;;5049652;28;20044;-76
2021/05/01 13:07:32;;;;;;;18.42;4.57;;;23.90;99.90;;;;;;5044004;28;20043;-75
2021/05/01 13:10:36;;;;;;;19.33;4.75;;;24.20;99.90;;;;;;5045440;28;20052;-67
2021/05/01 13:13:41;;;;;;;20.30;4.90;;;23.20;99.90;;;;;;5045261;28;20048;-74
2021/05/01 13:17:04;;;;;;;28.80;5.63;;;22.40;99.90;;;;;;5041085;28;20116;-73
2021/05/01 13:20:13;;;;;;;22.33;5.40;;;22.50;99.90;;;;;;5052122;28;20048;-74
2021/05/01 13:23:17;;;;;;;20.10;5.05;;;22.20;99.90;;;;;;5042109;28;20503;-74
2021/05/01 13:26:22;;;;;;;18.45;4.22;;;22.30;99.90;;;;;;5049719;28;20036;-75
2021/05/01 13:29:39;;;;;;;21.80;5.03;;;22.40;99.90;;;;;;5046753;28;20044;-75
2021/05/01 13:32:43;;;;;;;20.00;4.93;;;22.40;99.90;;;;;;5042843;28;20048;-72
2021/05/01 13:35:49;;;;;;;26.52;5.35;;;22.20;99.90;;;;;;5051756;28;20044;-74
2021/05/01 13:38:54;;;;;;;23.00;5.43;;;21.90;99.90;;;;;;5042015;28;20044;-74
2021/05/01 13:42:05;;;;;;;24.08;5.70;;;22.00;99.90;;;;;;5032976;28;20040;-72
2021/05/01 13:45:12;;;;;;;29.63;5.82;;;21.90;99.90;;;;;;5037456;28;20148;-76
2021/05/01 13:48:17;;;;;;;27.33;6.05;;;21.70;99.90;;;;;;5032638;28;20594;-71
2021/05/01 13:51:29;;;;;;;32.70;6.35;;;21.40;99.90;;;;;;5032772;28;20655;-74
2021/05/01 13:54:35;;;;;;;28.42;6.47;;;21.30;99.90;;;;;;5049143;28;20067;-73
2021/05/01 13:57:40;;;;;;;30.52;6.25;;;20.90;99.90;;;;;;5035642;28;20048;-73
2021/05/01 14:00:52;;;;;;;35.53;7.40;;;20.60;99.90;;;;;;5043823;28;20043;-73
2021/05/01 14:03:56;;;;;;;24.45;6.60;;;20.40;99.90;;;;;;5048341;28;20495;-74
2021/05/01 14:07:03;;;;;;;36.20;8.07;;;20.40;99.90;;;;;;5032149;28;20040;-74
2021/05/01 14:10:11;;;;;;;30.45;6.32;;;20.30;99.90;;;;;;5044167;28;20059;-73
2021/05/01 14:13:21;;;;;;;42.15;8.18;;;20.20;99.90;;;;;;5052318;28;20590;-73
2021/05/01 14:16:28;;;;;;;28.75;7.80;;;19.90;99.90;;;;;;5049878;28;20052;-75
2021/05/01 14:19:33;;;;;;;33.17;8.10;;;19.20;99.90;;;;;;5051805;28;20052;-74
2021/05/01 14:22:42;;;;;;;36.30;8.73;;;18.60;99.90;;;;;;5036727;28;20053;-73
2021/05/01 14:25:48;;;;;;;35.05;8.27;;;18.10;99.90;;;;;;5031764;28;20439;-72
2021/05/01 14:29:05;;;;;;;37.28;9.52;;;17.80;99.90;;;;;;5031302;28;20075;-72
2021/05/01 14:32:15;;;;;;;43.80;9.82;;;17.60;99.90;;;;;;5032388;28;20060;-71
2021/05/01 14:35:20;;;;;;;47.92;9.55;;;17.40;99.90;;;;;;5035735;28;20051;-70
2021/05/01 14:38:29;;;;;;;36.65;9.88;;;17.20;99.90;;;;;;5032089;28;20044;-71
2021/05/01 14:41:40;;;;;;;38.28;10.02;;;17.10;99.90;;;;;;5030940;28;20826;-73
2021/05/01 14:44:46;;;;;;;29.92;9.93;;;16.90;99.90;;;;;;5034323;28;20859;-68
2021/05/01 14:47:52;;;;;;;36.42;10.35;;;16.90;99.90;;;;;;5031730;28;20083;-73
2021/05/01 15:25:01;;;;;;;31.85;10.65;;;16.40;99.90;;;;;;5042187;28;20028;-66
2021/05/01 15:28:05;;;;;;;43.85;11.90;;;16.30;99.90;;;;;;5038887;28;20036;-67
2021/05/01 15:31:09;;;;;;;40.30;11.70;;;16.20;99.90;;;;;;5050309;28;20048;-67
2021/05/01 15:34:13;;;;;;;43.15;12.63;;;16.20;99.90;;;;;;5030802;28;20044;-66
2021/05/01 16:00:45;;;;;;;37.10;12.98;;;16.10;99.90;;;;;;5033752;28;20052;-65
2021/05/01 16:03:50;;;;;;;38.70;14.00;;;16.00;99.90;;;;;;5023991;28;20056;-66
2021/05/01 16:16:51;;;;;;;45.03;15.68;;;16.00;99.90;;;;;;5035811;28;20041;-66
2021/05/01 16:19:55;;;;;;;38.97;14.52;;;16.00;99.90;;;;;;5040110;28;20044;-65
2021/05/01 16:23:00;;;;;;;46.65;17.50;;;16.00;99.90;;;;;;5037599;28;20032;-66
2021/05/01 16:26:04;;;;;;;52.90;16.95;;;15.90;99.90;;;;;;5040612;28;20044;-65
2021/05/01 16:29:11;;;;;;;48.50;15.77;;;15.90;99.90;;;;;;5035802;28;20067;-65
2021/05/01 16:32:16;;;;;;;50.85;18.17;;;15.90;99.90;;;;;;5033168;28;20052;-66
2021/05/01 16:35:21;;;;;;;49.45;16.80;;;15.90;99.90;;;;;;5028461;28;20037;-66
2021/05/01 16:38:25;;;;;;;41.45;16.58;;;15.80;99.90;;;;;;5036941;28;20037;-66
2021/05/01 16:41:30;;;;;;;42.72;14.30;;;15.90;99.90;;;;;;5027760;28;20041;-66
2021/05/01 16:44:36;;;;;;;33.75;12.07;;;15.90;99.90;;;;;;5003307;28;20040;-66
2021/05/01 16:47:42;;;;;;;32.72;12.73;;;16.00;99.90;;;;;;5003831;28;20047;-65
2021/05/01 16:50:47;;;;;;;31.52;13.57;;;16.00;99.90;;;;;;5014996;28;20056;-65
2021/05/01 16:53:52;;;;;;;37.35;13.40;;;15.90;99.90;;;;;;5023898;28;20083;-65
2021/05/01 16:56:57;;;;;;;44.25;13.13;;;15.90;99.90;;;;;;5022729;28;20638;-66
2021/05/01 17:00:04;;;;;;;40.88;15.15;;;15.90;99.90;;;;;;5022765;28;20515;-66
2021/05/01 17:03:10;;;;;;;45.08;15.15;;;15.90;99.90;;;;;;5009103;28;20048;-66
2021/05/01 17:06:15;;;;;;;30.15;13.63;;;15.90;99.90;;;;;;5021461;28;20040;-66
2021/05/01 17:09:20;;;;;;;36.95;14.98;;;16.00;99.90;;;;;;5010207;28;20503;-66
2021/05/01 17:12:25;;;;;;;54.65;15.13;;;15.90;99.90;;;;;;5022585;28;20128;-66
2021/05/01 17:15:32;;;;;;;35.10;14.40;;;15.80;99.90;;;;;;5019944;28;20055;-67
2021/05/01 17:18:37;;;;;;;39.05;13.77;;;15.80;99.90;;;;;;5023512;28;20053;-65